Time;durP1;ratioP1;P1;durP2;ratioP2;P2;SDS_P1;SDS_P2;PMS_P1;PMS_P2;Temp;Humidity;BMP_temperature;BMP_pressure;BME280_temperature;BME280_humidity;BME280_pressure;Samples;Min_cycle;Max_cycle;Signal;HPM_P1;HPM_P2
2022/07/01 00:01:57;;;;;;;0.00;0.00;;;15.70;99.90;;;;;;5116566;28;20047;-80
2022/07/01 00:04:26;;;;;;;0.10;0.10;;;15.70;99.90;;;;;;5116226;28;20053;-80
2022/07/01 00:06:53;;;;;;;0.00;0.00;;;15.70;99.90;;;;;;5099644;27;20055;-80
2022/07/01 00:09:20;;;;;;;0.00;0.00;;;15.70;99.90;;;;;;5116607;28;20043;-80
2022/07/01 00:11:45;;;;;;;0.00;0.00;;;15.60;99.90;;;;;;5116687;28;20039;-80
2022/07/01 00:14:11;;;;;;;0.10;0.10;;;15.60;99.90;;;;;;5099041;28;20055;-79
2022/07/01 00:16:37;;;;;;;0.00;0.00;;;15.70;99.90;;;;;;5116314;28;20043;-80
2022/07/01 00:19:03;;;;;;;0.00;0.00;;;15.60;99.90;;;;;;5116694;28;20043;-80
2022/07/01 00:21:29;;;;;;;0.10;0.10;;;15.60;99.90;;;;;;5116837;28;20039;-80
2022/07/01 00:23:55;;;;;;;0.00;0.00;;;15.60;99.90;;;;;;5133386;28;20401;-80
2022/07/01 00:26:21;;;;;;;0.00;0.00;;;15.60;99.90;;;;;;5116307;28;20085;-80
2022/07/01 00:28:46;;;;;;;0.00;0.00;;;15.60;99.90;;;;;;5116422;28;20383;-80
2022/07/01 00:31:13;;;;;;;0.00;0.00;;;15.60;99.90;;;;;;5099470;28;20083;-80
2022/07/01 00:33:38;;;;;;;0.00;0.00;;;15.50;99.90;;;;;;5116446;28;20051;-80
2022/07/01 00:36:04;;;;;;;0.00;0.00;;;15.50;99.90;;;;;;5116590;28;20046;-80
2022/07/01 00:38:30;;;;;;;0.00;0.00;;;15.50;99.90;;;;;;5133731;28;20039;-80
2022/07/01 00:40:56;;;;;;;0.00;0.00;;;15.50;99.90;;;;;;5116772;28;20135;-80
2022/07/01 00:43:24;;;;;;;0.00;0.00;;;15.50;99.90;;;;;;5133419;28;20050;-80
2022/07/01 00:45:50;;;;;;;0.00;0.00;;;15.40;99.90;;;;;;5133377;28;20047;-80
2022/07/01 00:48:16;;;;;;;0.00;0.00;;;15.40;99.90;;;;;;5099601;28;20043;-80
2022/07/01 00:50:42;;;;;;;0.00;0.00;;;15.40;99.90;;;;;;5098857;28;20153;-80
2022/07/01 00:53:08;;;;;;;0.25;0.00;;;15.40;99.90;;;;;;5116372;28;20085;-80
2022/07/01 00:55:34;;;;;;;0.00;0.00;;;15.40;99.90;;;;;;5116165;28;20039;-80
2022/07/01 00:58:00;;;;;;;0.00;0.00;;;15.40;99.90;;;;;;5116140;28;20042;-80
2022/07/01 01:00:28;;;;;;;0.00;0.00;;;15.40;99.90;;;;;;5115952;28;20043;-80
2022/07/01 01:02:54;;;;;;;0.00;0.00;;;15.40;99.90;;;;;;5099133;28;20043;-79
2022/07/01 01:05:21;;;;;;;0.00;0.00;;;15.30;99.90;;;;;;5115722;28;20402;-80
2022/07/01 01:07:50;;;;;;;0.00;0.00;;;15.30;99.90;;;;;;5099047;28;20521;-80
2022/07/01 01:10:17;;;;;;;0.28;0.20;;;15.30;99.90;;;;;;5116083;28;20071;-79
2022/07/01 01:12:43;;;;;;;0.00;0.00;;;15.30;99.90;;;;;;5115691;28;20047;-79
2022/07/01 01:15:10;;;;;;;0.15;0.15;;;15.30;99.90;;;;;;5098953;28;20485;-80
2022/07/01 01:17:37;;;;;;;0.00;0.00;;;15.30;99.90;;;;;;5117881;27;20043;-80
2022/07/01 01:20:03;;;;;;;0.00;0.00;;;15.30;99.90;;;;;;5119585;27;20050;-79
2022/07/01 01:22:29;;;;;;;0.00;0.00;;;15.30;99.90;;;;;;5118953;27;20063;-80
2022/07/01 01:24:57;;;;;;;0.00;0.00;;;15.30;99.90;;;;;;5101917;27;20536;-80
2022/07/01 01:27:23;;;;;;;0.00;0.00;;;15.30;99.90;;;;;;5120281;27;20126;-80
2022/07/01 01:29:48;;;;;;;0.00;0.00;;;15.30;99.90;;;;;;5119871;27;20082;-80
2022/07/01 01:32:14;;;;;;;0.00;0.00;;;15.30;99.90;;;;;;5119555;27;20043;-80
2022/07/01 01:34:40;;;;;;;0.00;0.00;;;15.30;99.90;;;;;;5102608;27;20046;-80
2022/07/01 01:37:07;;;;;;;0.00;0.00;;;15.30;99.90;;;;;;5136552;27;20040;-80
2022/07/01 01:39:33;;;;;;;0.00;0.00;;;15.30;99.90;;;;;;5119110;27;20051;-80
2022/07/01 01:41:59;;;;;;;0.00;0.00;;;15.30;99.90;;;;;;5120079;27;20066;-80
2022/07/01 01:44:24;;;;;;;0.00;0.00;;;15.30;99.90;;;;;;5136503;27;20039;-80
2022/07/01 01:46:50;;;;;;;0.00;0.00;;;15.20;99.90;;;;;;5136564;27;20035;-80
2022/07/01 01:49:16;;;;;;;0.10;0.00;;;15.30;99.90;;;;;;5119365;27;20062;-80
2022/07/01 01:51:41;;;;;;;0.10;0.03;;;15.30;99.90;;;;;;5102006;27;20058;-80
2022/07/01 01:54:07;;;;;;;0.00;0.00;;;15.30;99.90;;;;;;5118926;27;20061;-80
2022/07/01 01:56:33;;;;;;;0.00;0.00;;;15.30;99.90;;;;;;5119084;27;20116;-80
2022/07/01 01:58:59;;;;;;;0.08;0.08;;;15.30;99.90;;;;;;5102190;27;20043;-79
2022/07/01 02:01:25;;;;;;;0.05;0.00;;;15.30;99.90;;;;;;5102002;27;20051;-80
2022/07/01 02:03:52;;;;;;;0.10;0.00;;;15.30;99.90;;;;;;5101672;27;20107;-79
2022/07/01 02:06:20;;;;;;;0.00;0.00;;;15.30;99.90;;;;;;5101664;27;20566;-80
2022/07/01 02:08:46;;;;;;;0.08;0.05;;;15.30;99.90;;;;;;5101692;27;20054;-80
2022/07/01 02:11:12;;;;;;;0.00;0.00;;;15.30;99.90;;;;;;5119039;27;20144;-80
2022/07/01 02:13:38;;;;;;;0.00;0.00;;;15.30;99.90;;;;;;5118893;27;20073;-80
2022/07/01 02:16:04;;;;;;;0.40;0.10;;;15.30;99.90;;;;;;5101561;27;20051;-80
2022/07/01 02:18:32;;;;;;;0.00;0.00;;;15.30;99.90;;;;;;5117904;27;20051;-80
2022/07/01 02:20:58;;;;;;;0.00;0.00;;;15.40;99.90;;;;;;5135555;27;20084;-80
2022/07/01 02:23:24;;;;;;;0.00;0.00;;;15.30;99.90;;;;;;5135551;27;20062;-80
2022/07/01 02:25:49;;;;;;;0.00;0.00;;;15.30;99.90;;;;;;5135125;27;20043;-80
2022/07/01 02:28:16;;;;;;;0.00;0.00;;;15.30;99.90;;;;;;5118124;27;20138;-80
2022/07/01 02:30:42;;;;;;;0.00;0.00;;;15.40;99.90;;;;;;5135208;27;20510;-80
2022/07/01 02:33:09;;;;;;;0.15;0.10;;;15.30;99.90;;;;;;5118354;27;20043;-80
2022/07/01 02:35:36;;;;;;;0.00;0.00;;;15.40;99.90;;;;;;5101456;27;20054;-80
2022/07/01 02:38:03;;;;;;;0.00;0.00;;;15.30;99.90;;;;;;5100557;27;20059;-79
2022/07/01 02:40:29;;;;;;;0.10;0.00;;;15.30;99.90;;;;;;5118213;27;20134;-80
2022/07/01 02:42:55;;;;;;;0.00;0.00;;;15.30;99.90;;;;;;5101315;27;20460;-80
2022/07/01 02:45:20;;;;;;;0.00;0.00;;;15.30;99.90;;;;;;5117987;27;20501;-80
2022/07/01 02:47:46;;;;;;;0.00;0.00;;;15.20;99.90;;;;;;5101040;27;20043;-80
2022/07/01 02:50:13;;;;;;;0.25;0.00;;;15.20;99.90;;;;;;5118100;27;20118;-80
2022/07/01 02:52:40;;;;;;;0.98;0.28;;;15.20;99.90;;;;;;5135041;27;20039;-80
2022/07/01 02:55:11;;;;;;;0.00;0.00;;;15.10;99.90;;;;;;5101090;27;20084;-80
2022/07/01 02:57:37;;;;;;;0.00;0.00;;;15.10;99.90;;;;;;5117888;27;20047;-80
2022/07/01 03:00:05;;;;;;;0.00;0.00;;;15.00;99.90;;;;;;5117915;27;20470;-80
2022/07/01 03:02:32;;;;;;;0.00;0.00;;;15.00;99.90;;;;;;5117742;27;20043;-80
2022/07/01 03:04:58;;;;;;;0.25;0.15;;;15.00;99.90;;;;;;5134795;27;20157;-80
2022/07/01 03:07:23;;;;;;;0.00;0.00;;;15.00;99.90;;;;;;5134574;27;20195;-80
2022/07/01 03:09:49;;;;;;;0.00;0.00;;;14.90;99.90;;;;;;5117750;27;20546;-80
2022/07/01 03:12:28;;;;;;;0.00;0.00;;;15.00;99.90;;;;;;5117674;27;20047;-80
2022/07/01 03:14:59;;;;;;;0.00;0.00;;;14.90;99.90;;;;;;5117965;27;20111;-80
2022/07/01 03:17:26;;;;;;;0.30;0.30;;;14.90;99.90;;;;;;5100437;27;20047;-80
2022/07/01 03:19:53;;;;;;;0.00;0.00;;;14.90;99.90;;;;;;5099812;27;20398;-80
2022/07/01 03:22:24;;;;;;;3.75;0.75;;;14.90;99.90;;;;;;5134529;27;20061;-80
2022/07/01 03:24:51;;;;;;;0.00;0.00;;;14.90;99.90;;;;;;5117002;27;20395;-80
2022/07/01 03:27:18;;;;;;;0.00;0.00;;;14.90;99.90;;;;;;5134481;27;20134;-80
2022/07/01 03:29:44;;;;;;;0.00;0.00;;;14.90;99.90;;;;;;5117245;27;20432;-80
2022/07/01 03:32:11;;;;;;;0.00;0.00;;;14.90;99.90;;;;;;5116793;27;20498;-80
2022/07/01 03:34:41;;;;;;;0.90;0.10;;;14.90;99.90;;;;;;5100568;27;20043;-80
2022/07/01 03:37:08;;;;;;;0.00;0.00;;;14.90;99.90;;;;;;5100099;27;20047;-80
2022/07/01 03:39:34;;;;;;;0.10;0.10;;;14.80;99.90;;;;;;5099759;27;20384;-81
2022/07/01 03:42:00;;;;;;;0.17;0.10;;;14.80;99.90;;;;;;5116331;27;20062;-80
2022/07/01 03:44:27;;;;;;;0.10;0.10;;;14.70;99.90;;;;;;5134164;27;20039;-80
2022/07/01 03:46:53;;;;;;;0.10;0.10;;;14.80;99.90;;;;;;5116818;27;20051;-80
2022/07/01 03:49:19;;;;;;;0.00;0.00;;;14.80;99.90;;;;;;5116012;27;20059;-80
2022/07/01 03:51:44;;;;;;;0.00;0.00;;;14.80;99.90;;;;;;5117397;27;20399;-80
2022/07/01 03:56:58;;;;;;;0.10;0.00;;;14.80;99.90;;;;;;5116653;27;20490;-80
2022/07/01 03:59:25;;;;;;;0.10;0.03;;;14.80;99.90;;;;;;5099745;27;20043;-80
2022/07/01 04:01:52;;;;;;;0.00;0.00;;;14.80;99.90;;;;;;5117101;27;20043;-80
2022/07/01 04:04:18;;;;;;;0.20;0.00;;;14.80;99.90;;;;;;5133863;27;20051;-80
2022/07/01 04:06:45;;;;;;;0.10;0.10;;;14.80;99.90;;;;;;5134251;27;20521;-80
2022/07/01 04:09:12;;;;;;;0.08;0.00;;;14.80;99.90;;;;;;5099438;27;20063;-80
2022/07/01 04:11:38;;;;;;;0.00;0.00;;;14.80;99.90;;;;;;5099679;28;20051;-80
2022/07/01 04:14:04;;;;;;;0.10;0.10;;;14.90;99.90;;;;;;5116567;28;20050;-80
2022/07/01 04:16:30;;;;;;;0.45;0.20;;;14.90;99.90;;;;;;5100357;28;20070;-80
2022/07/01 04:18:57;;;;;;;0.00;0.00;;;14.80;99.90;;;;;;5133708;28;20046;-81
2022/07/01 04:24:08;;;;;;;0.00;0.00;;;14.80;99.90;;;;;;5116509;28;20191;-81
2022/07/01 04:26:34;;;;;;;0.22;0.22;;;14.90;99.90;;;;;;5116558;28;20051;-80
2022/07/01 04:29:00;;;;;;;0.05;0.00;;;14.90;99.90;;;;;;5116430;28;20047;-80
2022/07/01 04:31:26;;;;;;;0.20;0.20;;;14.90;99.90;;;;;;5115860;28;20059;-80
2022/07/01 04:33:51;;;;;;;0.10;0.10;;;14.90;99.90;;;;;;5116235;28;20498;-80
2022/07/01 04:36:25;;;;;;;0.10;0.10;;;14.90;99.90;;;;;;5116474;28;20046;-80
2022/07/01 04:38:51;;;;;;;0.20;0.13;;;14.90;99.90;;;;;;5133654;28;20112;-80
2022/07/01 04:44:01;;;;;;;0.40;0.40;;;14.90;99.90;;;;;;5116682;28;20043;-80
2022/07/01 04:46:26;;;;;;;0.10;0.10;;;14.80;99.90;;;;;;5116332;28;20482;-80
2022/07/01 04:48:52;;;;;;;0.10;0.10;;;14.80;99.90;;;;;;5116279;28;20039;-80
2022/07/01 04:51:20;;;;;;;0.00;0.00;;;14.80;99.90;;;;;;5116188;27;20043;-80
2022/07/01 04:53:47;;;;;;;0.05;0.05;;;14.80;99.90;;;;;;5119959;27;20142;-82
2022/07/01 04:56:12;;;;;;;0.03;0.03;;;14.80;99.90;;;;;;5119952;27;20059;-80
2022/07/01 04:58:38;;;;;;;2.08;0.35;;;14.90;99.90;;;;;;5120541;27;20043;-80
2022/07/01 05:01:04;;;;;;;0.20;0.00;;;14.80;99.90;;;;;;5120240;27;20100;-80
2022/07/01 05:03:29;;;;;;;0.25;0.20;;;14.80;99.90;;;;;;5102227;27;20051;-80
2022/07/01 05:05:55;;;;;;;0.00;0.00;;;14.80;99.90;;;;;;5137039;27;20051;-80
2022/07/01 05:08:21;;;;;;;0.10;0.10;;;14.80;99.90;;;;;;5119872;27;20155;-81
2022/07/01 05:10:46;;;;;;;0.22;0.10;;;14.90;99.90;;;;;;5103695;27;20050;-80
2022/07/01 05:13:12;;;;;;;0.10;0.10;;;14.80;99.90;;;;;;5102705;27;20542;-80
2022/07/01 05:15:38;;;;;;;0.10;0.10;;;14.90;99.90;;;;;;5102028;27;20062;-80
2022/07/01 05:23:32;;;;;;;1.40;0.70;;;14.90;99.90;;;;;;5120172;27;20043;-80
2022/07/01 05:25:57;;;;;;;0.10;0.10;;;15.00;99.90;;;;;;5119568;27;20093;-79
2022/07/01 05:28:23;;;;;;;0.00;0.00;;;14.90;99.90;;;;;;5119605;27;20047;-80
2022/07/01 05:30:49;;;;;;;0.00;0.00;;;14.90;99.90;;;;;;5119484;27;20185;-79
2022/07/01 05:33:14;;;;;;;0.73;0.32;;;14.90;99.90;;;;;;5102020;27;20046;-79
2022/07/01 05:35:40;;;;;;;0.08;0.08;;;14.90;99.90;;;;;;5136447;27;20039;-80
2022/07/01 05:38:06;;;;;;;0.55;0.13;;;15.00;99.90;;;;;;5119485;27;20047;-79
2022/07/01 05:40:31;;;;;;;0.08;0.00;;;15.00;99.90;;;;;;5136607;27;20043;-79
2022/07/01 05:42:57;;;;;;;0.32;0.22;;;15.00;99.90;;;;;;5102378;27;20073;-79
2022/07/01 05:45:22;;;;;;;0.00;0.00;;;15.00;99.90;;;;;;5118867;27;20043;-79
2022/07/01 05:47:48;;;;;;;0.30;0.25;;;15.10;99.90;;;;;;5136509;27;20082;-79
2022/07/01 05:50:15;;;;;;;0.25;0.25;;;15.00;99.90;;;;;;5136551;27;20050;-79
2022/07/01 05:52:43;;;;;;;0.05;0.05;;;15.10;99.90;;;;;;5118935;27;20079;-79
2022/07/01 05:55:10;;;;;;;0.22;0.22;;;15.10;99.90;;;;;;5136215;27;20084;-79
2022/07/01 05:57:36;;;;;;;0.15;0.15;;;15.10;99.90;;;;;;5118965;27;20043;-79
2022/07/01 06:00:04;;;;;;;0.03;0.03;;;15.00;99.90;;;;;;5118892;27;20054;-80
2022/07/01 06:02:29;;;;;;;0.25;0.00;;;15.10;99.90;;;;;;5101432;27;20059;-79
2022/07/01 06:04:55;;;;;;;0.40;0.40;;;15.10;99.90;;;;;;5116361;27;20112;-79
2022/07/01 06:07:21;;;;;;;0.10;0.10;;;15.20;99.90;;;;;;5101556;27;20047;-79
2022/07/01 06:09:47;;;;;;;0.40;0.10;;;15.10;99.90;;;;;;5101816;27;20081;-80
2022/07/01 06:12:12;;;;;;;0.00;0.00;;;15.20;99.90;;;;;;5118528;27;20131;-79
2022/07/01 06:14:38;;;;;;;0.00;0.00;;;15.20;99.90;;;;;;5118341;27;20049;-79
2022/07/01 06:17:04;;;;;;;0.00;0.00;;;15.30;99.90;;;;;;5118382;27;20043;-78
2022/07/01 06:19:30;;;;;;;0.03;0.03;;;15.40;99.90;;;;;;5101612;27;20043;-79
2022/07/01 06:21:56;;;;;;;0.20;0.20;;;15.40;99.90;;;;;;5118533;27;20047;-79
2022/07/01 06:24:27;;;;;;;0.10;0.10;;;15.40;99.90;;;;;;5118236;27;20061;-79
2022/07/01 06:26:56;;;;;;;6.32;0.85;;;15.50;99.90;;;;;;5101449;27;20088;-79
2022/07/01 06:29:22;;;;;;;0.10;0.10;;;15.50;99.90;;;;;;5100962;27;20506;-79
2022/07/01 06:31:50;;;;;;;0.05;0.05;;;15.80;99.90;;;;;;5101966;27;20039;-79
2022/07/01 06:34:16;;;;;;;0.45;0.30;;;15.50;99.90;;;;;;5118228;27;20047;-79
2022/07/01 06:36:41;;;;;;;0.20;0.20;;;15.60;99.90;;;;;;5118741;27;20072;-79
2022/07/01 06:39:07;;;;;;;0.10;0.10;;;15.60;99.90;;;;;;5118183;27;20083;-79
2022/07/01 06:41:33;;;;;;;0.20;0.20;;;15.70;99.90;;;;;;5118159;27;20561;-79
2022/07/01 06:44:00;;;;;;;0.10;0.10;;;15.70;99.90;;;;;;5100732;27;20035;-79
2022/07/01 06:46:27;;;;;;;0.80;0.22;;;15.60;99.90;;;;;;5135194;27;20047;-79
2022/07/01 06:48:53;;;;;;;0.10;0.10;;;15.60;99.90;;;;;;5118212;27;20405;-79
2022/07/01 06:51:19;;;;;;;0.10;0.10;;;15.70;99.90;;;;;;5100702;27;20035;-79
2022/07/01 06:53:46;;;;;;;0.10;0.10;;;15.60;99.90;;;;;;5118193;27;20036;-79
2022/07/01 06:56:13;;;;;;;1.63;0.22;;;15.50;99.90;;;;;;5100558;27;20101;-79
2022/07/01 06:58:40;;;;;;;0.10;0.10;;;15.60;99.90;;;;;;5117827;27;20099;-80
2022/07/01 07:01:06;;;;;;;0.10;0.00;;;15.60;99.90;;;;;;5117331;27;20119;-80
2022/07/01 07:03:32;;;;;;;0.40;0.35;;;15.90;99.90;;;;;;5100731;27;20051;-80
2022/07/01 07:06:01;;;;;;;3.50;0.20;;;15.50;99.90;;;;;;5117605;27;20043;-80
2022/07/01 07:08:29;;;;;;;0.10;0.10;;;15.50;99.90;;;;;;5117685;27;20046;-80
2022/07/01 07:10:54;;;;;;;1.55;0.65;;;15.50;99.90;;;;;;5117511;27;20502;-80
2022/07/01 07:13:20;;;;;;;0.38;0.38;;;15.50;99.90;;;;;;5117542;27;20082;-80
2022/07/01 07:15:46;;;;;;;1.85;0.70;;;15.50;99.90;;;;;;5118010;27;20047;-81
2022/07/01 07:18:12;;;;;;;1.95;1.45;;;15.40;99.90;;;;;;5100503;27;20039;-80
2022/07/01 07:20:38;;;;;;;0.10;0.10;;;15.50;99.90;;;;;;5100225;27;20047;-81
2022/07/01 07:23:03;;;;;;;0.30;0.30;;;15.60;99.90;;;;;;5100427;27;20086;-81
2022/07/01 07:25:30;;;;;;;0.57;0.20;;;15.60;99.90;;;;;;5116499;27;20083;-81
2022/07/01 07:27:57;;;;;;;0.57;0.55;;;15.70;99.90;;;;;;5117136;27;20039;-81
2022/07/01 07:30:23;;;;;;;0.82;0.82;;;15.80;99.90;;;;;;5116887;27;20065;-81
2022/07/01 07:32:49;;;;;;;0.75;0.60;;;15.90;99.90;;;;;;5117615;27;20082;-81
2022/07/01 07:35:15;;;;;;;0.38;0.38;;;15.90;99.90;;;;;;5117286;27;20047;-81
2022/07/01 07:37:42;;;;;;;1.65;0.65;;;16.20;99.90;;;;;;5117265;27;20143;-81
2022/07/01 07:40:11;;;;;;;0.28;0.28;;;16.20;99.90;;;;;;5116767;27;20421;-81
2022/07/01 07:42:39;;;;;;;0.10;0.10;;;16.10;99.90;;;;;;5117325;27;20081;-81
2022/07/01 07:45:06;;;;;;;4.47;0.45;;;16.30;99.90;;;;;;5134018;27;20043;-81
2022/07/01 07:47:35;;;;;;;0.57;0.43;;;16.40;99.90;;;;;;5134004;27;20749;-81
2022/07/01 07:50:01;;;;;;;0.30;0.30;;;16.60;99.90;;;;;;5116673;27;20043;-81
2022/07/01 07:52:27;;;;;;;0.80;0.52;;;16.70;99.90;;;;;;5099554;28;20402;-81
2022/07/01 07:54:52;;;;;;;0.22;0.22;;;16.70;99.90;;;;;;5116838;27;20134;-81
2022/07/01 07:57:18;;;;;;;0.20;0.20;;;16.70;99.90;;;;;;5099912;27;20050;-81
2022/07/01 07:59:44;;;;;;;0.10;0.10;;;16.80;99.90;;;;;;5116842;27;20043;-80
2022/07/01 08:02:10;;;;;;;0.90;0.40;;;16.80;99.90;;;;;;5117164;28;20035;-81
2022/07/01 08:04:36;;;;;;;1.10;0.70;;;16.80;99.90;;;;;;5099325;28;20043;-80
2022/07/01 08:07:02;;;;;;;7.47;0.55;;;16.80;99.90;;;;;;5116689;27;20372;-81
2022/07/01 08:09:28;;;;;;;0.10;0.10;;;17.00;99.90;;;;;;5116729;28;20047;-80
2022/07/01 08:11:53;;;;;;;2.63;0.75;;;17.30;99.90;;;;;;5116803;28;20046;-80
2022/07/01 08:14:19;;;;;;;0.10;0.10;;;17.40;99.90;;;;;;5116660;28;20047;-80
2022/07/01 08:16:45;;;;;;;1.13;0.55;;;17.40;99.90;;;;;;5099581;28;20050;-80
2022/07/01 08:19:11;;;;;;;0.13;0.13;;;17.50;99.90;;;;;;5116567;28;20372;-80
2022/07/01 08:21:37;;;;;;;0.10;0.10;;;17.60;99.90;;;;;;5116456;28;20083;-80
2022/07/01 08:24:03;;;;;;;2.22;0.47;;;17.60;99.90;;;;;;5099170;28;20066;-80
2022/07/01 08:26:29;;;;;;;0.00;0.00;;;17.70;99.90;;;;;;5099744;28;20050;-80
2022/07/01 08:28:54;;;;;;;0.52;0.30;;;17.70;99.90;;;;;;5120415;27;20039;-80
2022/07/01 08:31:20;;;;;;;0.30;0.30;;;17.70;99.90;;;;;;5103613;27;20043;-80
2022/07/01 08:33:46;;;;;;;1.17;0.55;;;17.90;99.90;;;;;;5103337;27;20118;-80
2022/07/01 08:36:13;;;;;;;0.10;0.10;;;17.90;99.90;;;;;;5120450;27;20505;-80
2022/07/01 08:38:39;;;;;;;0.22;0.22;;;18.00;99.90;;;;;;5120517;27;20055;-80
2022/07/01 08:41:05;;;;;;;3.58;0.47;;;18.20;99.90;;;;;;5120659;27;20047;-80
2022/07/01 08:43:31;;;;;;;0.13;0.13;;;18.20;99.90;;;;;;5120866;27;20043;-80
2022/07/01 08:46:01;;;;;;;0.40;0.25;;;18.40;99.90;;;;;;5102935;27;20421;-80
2022/07/01 08:48:28;;;;;;;0.00;0.00;;;18.40;99.90;;;;;;5120412;27;20375;-80
2022/07/01 08:50:53;;;;;;;0.10;0.10;;;18.40;99.90;;;;;;5120259;27;20075;-80
2022/07/01 08:53:25;;;;;;;0.60;0.40;;;18.50;99.90;;;;;;5120257;27;20495;-80
2022/07/01 08:58:37;;;;;;;0.17;0.10;;;18.70;99.90;;;;;;5120498;27;20497;-79
2022/07/01 09:01:22;;;;;;;0.95;0.40;;;18.70;99.90;;;;;;5103104;27;20285;-80
2022/07/01 09:03:56;;;;;;;0.00;0.00;;;18.80;99.90;;;;;;5136980;27;20521;-79
2022/07/01 09:06:25;;;;;;;0.30;0.10;;;19.10;99.90;;;;;;5103359;27;20043;-79
2022/07/01 09:08:51;;;;;;;0.20;0.20;;;19.20;99.90;;;;;;5102997;27;20043;-79
2022/07/01 09:11:22;;;;;;;0.85;0.77;;;19.20;99.90;;;;;;5102671;27;20055;-79
2022/07/01 09:14:08;;;;;;;0.20;0.20;;;18.90;99.90;;;;;;5103361;27;20054;-79
2022/07/01 09:16:45;;;;;;;0.38;0.38;;;18.60;99.90;;;;;;5119861;27;20085;-80
2022/07/01 09:19:15;;;;;;;0.00;0.00;;;18.50;99.90;;;;;;5119768;27;20048;-79
2022/07/01 09:21:41;;;;;;;0.08;0.08;;;18.50;99.90;;;;;;5102720;27;20054;-80
2022/07/01 09:24:27;;;;;;;0.20;0.20;;;18.50;99.90;;;;;;5119471;27;20050;-79
2022/07/01 09:27:18;;;;;;;0.15;0.10;;;18.50;99.90;;;;;;5119796;27;20051;-80
2022/07/01 09:29:53;;;;;;;0.30;0.08;;;18.50;99.90;;;;;;5119008;27;20051;-80
2022/07/01 09:32:21;;;;;;;0.03;0.03;;;18.40;99.90;;;;;;5102155;27;20055;-80
2022/07/01 09:34:49;;;;;;;0.25;0.25;;;18.40;99.90;;;;;;5119398;27;20039;-80
2022/07/01 09:37:17;;;;;;;0.00;0.00;;;18.30;99.90;;;;;;5119265;27;20051;-80
2022/07/01 09:39:44;;;;;;;0.00;0.00;;;18.40;99.90;;;;;;5117871;27;20051;-80
2022/07/01 09:42:10;;;;;;;0.20;0.20;;;18.30;99.90;;;;;;5119225;27;20553;-80
2022/07/01 09:44:55;;;;;;;1.13;0.30;;;18.30;99.90;;;;;;5102093;27;20080;-80
2022/07/01 09:47:28;;;;;;;0.00;0.00;;;18.40;99.90;;;;;;5102216;27;20043;-80
2022/07/01 09:49:54;;;;;;;5.05;0.65;;;18.40;99.90;;;;;;5136074;27;20497;-79
2022/07/01 09:52:21;;;;;;;0.47;0.45;;;18.60;99.90;;;;;;5136132;27;20047;-80
2022/07/01 09:54:51;;;;;;;0.15;0.15;;;18.60;99.90;;;;;;5102043;27;20391;-80
2022/07/01 09:57:18;;;;;;;1.23;0.35;;;18.70;99.90;;;;;;5101959;27;20043;-80
2022/07/01 09:59:48;;;;;;;0.10;0.10;;;18.90;99.90;;;;;;5136993;27;20130;-80
2022/07/01 10:02:17;;;;;;;0.00;0.00;;;19.20;99.90;;;;;;5136392;27;20117;-80
2022/07/01 10:04:52;;;;;;;0.00;0.00;;;19.30;99.90;;;;;;5118378;27;20051;-80
2022/07/01 10:07:57;;;;;;;0.08;0.08;;;19.20;99.90;;;;;;5101857;27;20410;-80
2022/07/01 10:11:10;;;;;;;0.10;0.10;;;19.10;99.90;;;;;;5119264;27;20508;-80
2022/07/01 10:13:36;;;;;;;0.10;0.10;;;19.20;99.90;;;;;;5119035;27;20062;-80
2022/07/01 10:16:03;;;;;;;0.00;0.00;;;19.30;99.90;;;;;;5118720;27;20088;-80
2022/07/01 10:18:29;;;;;;;0.00;0.00;;;19.50;99.90;;;;;;5135648;27;20487;-80
2022/07/01 10:20:58;;;;;;;0.13;0.13;;;19.50;99.90;;;;;;5118073;27;20039;-80
2022/07/01 10:23:36;;;;;;;0.00;0.00;;;19.60;99.90;;;;;;5135674;27;20046;-80
2022/07/01 10:26:04;;;;;;;0.00;0.00;;;19.60;99.90;;;;;;5136684;27;20050;-80
2022/07/01 10:28:43;;;;;;;0.20;0.05;;;19.90;99.90;;;;;;5118454;27;20043;-80
2022/07/01 10:31:16;;;;;;;0.00;0.00;;;20.20;99.90;;;;;;5135626;27;20153;-80
2022/07/01 10:33:46;;;;;;;0.00;0.00;;;20.30;99.90;;;;;;5119003;27;20062;-80
2022/07/01 10:36:16;;;;;;;0.05;0.00;;;20.20;99.90;;;;;;5101194;27;20403;-80
2022/07/01 10:39:03;;;;;;;0.68;0.10;;;20.30;99.90;;;;;;5101110;27;20604;-80
2022/07/01 10:41:41;;;;;;;0.00;0.00;;;20.30;99.90;;;;;;5135223;27;20133;-80
2022/07/01 10:44:10;;;;;;;0.10;0.10;;;20.30;99.90;;;;;;5100593;27;20513;-80
2022/07/01 10:46:46;;;;;;;0.00;0.00;;;20.20;99.90;;;;;;5101417;27;20075;-80
2022/07/01 10:49:13;;;;;;;0.10;0.00;;;20.20;99.90;;;;;;5135204;27;20482;-80
2022/07/01 10:51:42;;;;;;;0.00;0.00;;;20.40;99.90;;;;;;5117734;27;20043;-79
2022/07/01 10:54:08;;;;;;;0.00;0.00;;;20.70;99.90;;;;;;5135809;27;20047;-79
2022/07/01 10:56:41;;;;;;;0.00;0.00;;;21.10;99.90;;;;;;5101413;27;20133;-79
2022/07/01 10:59:07;;;;;;;0.00;0.00;;;21.30;99.90;;;;;;5134938;27;20043;-80
2022/07/01 11:01:33;;;;;;;0.00;0.00;;;21.70;99.90;;;;;;5117733;27;20066;-80
2022/07/01 11:03:59;;;;;;;0.00;0.00;;;21.90;99.90;;;;;;5117471;27;20574;-80
2022/07/01 11:06:25;;;;;;;0.38;0.22;;;21.80;98.40;;;;;;5117606;27;20084;-80
2022/07/01 11:08:51;;;;;;;0.13;0.13;;;21.90;99.90;;;;;;5100568;27;20047;-80
2022/07/01 11:11:19;;;;;;;0.10;0.00;;;21.80;99.90;;;;;;5118025;27;20035;-80
2022/07/01 11:13:48;;;;;;;0.10;0.10;;;21.80;99.90;;;;;;5117603;27;20513;-80
2022/07/01 11:16:15;;;;;;;0.10;0.10;;;22.00;99.90;;;;;;5117323;27;20039;-80
2022/07/01 11:18:40;;;;;;;0.00;0.00;;;22.00;99.70;;;;;;5117434;27;20423;-80
2022/07/01 11:21:08;;;;;;;0.00;0.00;;;21.90;99.60;;;;;;5100630;27;20135;-80
2022/07/01 11:23:35;;;;;;;0.00;0.00;;;21.90;99.90;;;;;;5100643;27;20063;-80
2022/07/01 11:26:00;;;;;;;0.10;0.10;;;22.00;99.90;;;;;;5117224;27;20126;-80
2022/07/01 11:28:26;;;;;;;0.00;0.00;;;22.10;99.70;;;;;;5100509;27;20083;-80
2022/07/01 11:31:01;;;;;;;0.20;0.20;;;21.90;99.70;;;;;;5100385;27;20043;-80
2022/07/01 11:33:27;;;;;;;0.00;0.00;;;21.70;98.40;;;;;;5117389;27;20051;-80
2022/07/01 11:41:25;;;;;;;0.13;0.13;;;21.30;99.90;;;;;;5117299;27;20452;-80
2022/07/01 11:43:52;;;;;;;0.00;0.00;;;21.60;99.30;;;;;;5133825;27;20130;-80
2022/07/01 11:46:17;;;;;;;0.32;0.15;;;21.80;99.90;;;;;;5116608;27;20478;-80
2022/07/01 11:48:49;;;;;;;0.00;0.00;;;22.10;99.00;;;;;;5116760;27;20051;-80
2022/07/01 11:51:17;;;;;;;0.17;0.17;;;22.20;97.70;;;;;;5099916;27;20089;-80
2022/07/01 11:53:49;;;;;;;0.00;0.00;;;22.30;97.70;;;;;;5117173;27;20131;-80
2022/07/01 11:56:16;;;;;;;0.00;0.00;;;22.30;96.50;;;;;;5099788;27;20051;-80
2022/07/01 11:58:42;;;;;;;0.00;0.00;;;22.20;95.40;;;;;;5116362;27;20042;-80
2022/07/01 12:01:10;;;;;;;1.38;0.10;;;22.10;98.00;;;;;;5133566;27;20137;-80
2022/07/01 12:03:37;;;;;;;0.00;0.00;;;21.90;98.50;;;;;;5116254;27;20085;-80
2022/07/01 12:06:08;;;;;;;0.10;0.10;;;21.80;97.80;;;;;;5133663;27;20051;-80
2022/07/01 12:08:34;;;;;;;0.13;0.00;;;21.50;98.50;;;;;;5099754;27;20039;-79
2022/07/01 12:11:00;;;;;;;0.00;0.00;;;21.20;97.30;;;;;;5116624;28;20039;-79
2022/07/01 12:13:26;;;;;;;0.00;0.00;;;21.00;98.80;;;;;;5116295;28;20084;-79
2022/07/01 12:15:53;;;;;;;0.00;0.00;;;20.90;99.20;;;;;;5099261;28;20560;-79
2022/07/01 12:18:19;;;;;;;0.00;0.00;;;21.00;99.90;;;;;;5133822;28;20460;-79
2022/07/01 12:20:53;;;;;;;0.00;0.00;;;21.10;99.90;;;;;;5116123;28;20147;-79
2022/07/01 12:23:19;;;;;;;0.08;0.00;;;21.40;99.90;;;;;;5115920;28;20498;-79
2022/07/01 12:25:50;;;;;;;0.00;0.00;;;21.50;99.70;;;;;;5116290;28;20048;-79
2022/07/01 12:28:39;;;;;;;0.08;0.00;;;21.40;98.80;;;;;;5116315;28;20043;-79
2022/07/01 12:31:09;;;;;;;0.00;0.00;;;21.40;98.60;;;;;;5133660;28;20082;-79
2022/07/01 12:33:37;;;;;;;0.00;0.00;;;21.50;99.40;;;;;;5116373;28;20039;-79
2022/07/01 12:36:04;;;;;;;0.00;0.00;;;21.70;98.10;;;;;;5098738;28;20059;-79
2022/07/01 12:38:31;;;;;;;2.38;0.43;;;21.90;98.10;;;;;;5099352;28;20051;-79
2022/07/01 12:40:57;;;;;;;0.00;0.00;;;21.90;98.20;;;;;;5116445;28;20070;-79
2022/07/01 12:43:32;;;;;;;0.57;0.20;;;21.90;98.10;;;;;;5133383;28;20104;-80
2022/07/01 12:46:01;;;;;;;0.08;0.08;;;21.90;98.60;;;;;;5116151;28;20130;-79
2022/07/01 12:48:27;;;;;;;0.00;0.00;;;21.90;97.50;;;;;;5099069;28;20399;-80
2022/07/01 12:50:57;;;;;;;0.00;0.00;;;22.00;98.20;;;;;;5100001;28;20057;-80
2022/07/01 12:53:24;;;;;;;0.00;0.00;;;22.30;99.20;;;;;;5099913;28;20050;-80
2022/07/01 12:55:56;;;;;;;0.00;0.00;;;22.60;98.60;;;;;;5116256;28;20035;-80
2022/07/01 12:58:26;;;;;;;0.00;0.00;;;22.40;95.60;;;;;;5099214;28;20086;-80
2022/07/01 13:00:57;;;;;;;0.00;0.00;;;22.10;94.60;;;;;;5099226;28;20043;-80
2022/07/01 13:03:24;;;;;;;3.30;0.35;;;21.80;95.40;;;;;;5099719;28;20046;-80
2022/07/01 13:05:52;;;;;;;0.00;0.00;;;21.50;95.60;;;;;;5098481;28;20386;-80
2022/07/01 13:08:22;;;;;;;0.00;0.00;;;21.40;96.70;;;;;;5133197;28;20043;-80
2022/07/01 13:10:48;;;;;;;0.22;0.22;;;21.20;97.60;;;;;;5099181;28;20051;-80
2022/07/01 13:13:16;;;;;;;0.10;0.10;;;21.20;98.00;;;;;;5134383;27;20061;-80